ENSO

Stord/Sørstokken Airport

Airport
ICAO code
ENSO
IATA Code
SRP
Summary
ICAO Region
EUR
ICAO Territory
Location

Sørstokken, Hordaland,

Serving
Stord
Elevation
160 ft
Coordinates
59° 47' 25" N , 5° 20' 28" E
KCC
Metar
Observation
ENSO 271450Z 12010KT 9999 -SHRA SCT013 BKN018 02/01 Q1027
Station
Stord / Soerstokken
Date/Time
2023-01-27 14:50:00
Wind direction
120°
Wind speed
10 kts
Lowest cloud amount
scattered clouds
Temperature
2°C
Dew point
1°C
Humidity
93%
QNH
1027 hPa
Weather condition
light showers rain

Description

Stord Airport, Sørstokken is a regional airport located 13 km west of Leirvik, in the municipality and island of Stord, Norway.

Climatology

Temperate Marine climate/Oceanic climate (Köppen climate classification Cfb). Moderately cool summer and comparatively warm winter with a temperature range of only 14°C. Prevailing south-westerly winds from the Atlantic Ocean.

Runways

Designator Length Width Surface Rops
15/33 1200 30 ASP Yes/Yes

Airport map

Aerial View

Airport accidents

SKYbrary Partners:

Safety knowledge contributed by: